createdAt,value
2022-08-16T00:01:14.829Z,99.90
2022-08-16T00:03:41.558Z,99.90
2022-08-16T00:06:10.132Z,99.90
2022-08-16T00:08:37.664Z,99.90
2022-08-16T00:11:06.121Z,99.90
2022-08-16T00:18:55.866Z,99.90
2022-08-16T00:21:23.903Z,99.90
2022-08-16T00:23:50.642Z,99.90
2022-08-16T00:26:34.593Z,99.90
2022-08-16T00:29:04.792Z,99.90
2022-08-16T00:31:58.857Z,99.90
2022-08-16T00:34:20.911Z,99.90
2022-08-16T00:36:48.996Z,99.90
2022-08-16T00:39:22.676Z,99.90
2022-08-16T00:41:50.208Z,99.90
2022-08-16T00:44:19.916Z,99.90
2022-08-16T00:47:05.014Z,99.90
2022-08-16T00:49:39.774Z,99.90
2022-08-16T00:52:30.032Z,99.90
2022-08-16T00:54:58.311Z,99.90
2022-08-16T00:57:25.708Z,99.90
2022-08-16T00:59:58.867Z,99.90
2022-08-16T01:05:11.191Z,99.90
2022-08-16T01:07:50.535Z,99.90
2022-08-16T01:12:46.518Z,99.90
2022-08-16T01:15:15.648Z,99.90
2022-08-16T01:17:44.715Z,99.90
2022-08-16T01:20:23.974Z,99.90
2022-08-16T01:23:03.376Z,99.90
2022-08-16T01:25:36.694Z,99.90
2022-08-16T01:28:10.860Z,99.90
2022-08-16T01:30:51.900Z,99.90
2022-08-16T01:33:20.250Z,99.90
2022-08-16T01:35:53.607Z,99.90
2022-08-16T01:38:28.236Z,99.90
2022-08-16T01:41:02.015Z,99.90
2022-08-16T01:43:31.139Z,99.90
2022-08-16T01:46:00.064Z,99.90
2022-08-16T01:51:18.659Z,99.90
2022-08-16T01:53:55.202Z,99.90
2022-08-16T01:56:25.472Z,99.90
2022-08-16T01:58:54.304Z,99.90
2022-08-16T02:01:21.536Z,99.90
2022-08-16T02:03:50.510Z,99.90
2022-08-16T02:06:33.877Z,99.90
2022-08-16T02:09:05.242Z,99.90
2022-08-16T02:11:43.001Z,99.90
2022-08-16T02:14:18.466Z,99.90
2022-08-16T02:16:48.528Z,99.90
2022-08-16T02:19:16.962Z,99.90
2022-08-16T02:22:08.904Z,99.90
2022-08-16T02:24:40.647Z,99.90
2022-08-16T02:27:09.429Z,99.90
2022-08-16T02:29:36.825Z,99.90
2022-08-16T02:32:50.649Z,99.90
2022-08-16T02:37:23.705Z,99.90
2022-08-16T02:40:11.599Z,99.90
2022-08-16T02:42:39.102Z,99.90
2022-08-16T02:45:06.676Z,99.90
2022-08-16T02:48:00.455Z,99.90
2022-08-16T02:50:54.634Z,99.90
2022-08-16T02:53:11.503Z,99.90
2022-08-16T02:55:41.345Z,99.90
2022-08-16T02:58:09.137Z,99.90
2022-08-16T03:03:04.816Z,99.90
2022-08-16T03:05:37.450Z,99.90
2022-08-16T03:08:05.446Z,99.90
2022-08-16T03:13:20.954Z,99.90
2022-08-16T03:15:49.740Z,99.90
2022-08-16T03:18:34.142Z,99.90
2022-08-16T03:21:04.033Z,99.90
2022-08-16T03:23:35.885Z,99.90
2022-08-16T03:26:02.975Z,99.90
2022-08-16T03:28:30.769Z,99.90
2022-08-16T03:30:57.459Z,99.90
2022-08-16T03:35:57.192Z,99.90
2022-08-16T03:41:03.023Z,99.90
2022-08-16T03:43:51.706Z,99.90
2022-08-16T03:46:47.997Z,99.90
2022-08-16T03:49:11.327Z,99.90
2022-08-16T03:59:25.998Z,99.90
2022-08-16T04:01:56.850Z,99.90
2022-08-16T04:04:32.586Z,99.90
2022-08-16T04:07:00.642Z,99.90
2022-08-16T04:09:31.126Z,99.90
2022-08-16T04:12:03.447Z,99.90
2022-08-16T04:14:38.615Z,99.90
2022-08-16T04:17:14.875Z,99.90
2022-08-16T04:19:45.535Z,99.90
2022-08-16T04:22:17.429Z,99.90
2022-08-16T04:24:54.429Z,99.90
2022-08-16T04:27:22.279Z,99.90
2022-08-16T04:29:52.561Z,99.90
2022-08-16T04:34:46.845Z,99.90
2022-08-16T04:37:14.117Z,99.90
2022-08-16T04:39:47.371Z,99.90
2022-08-16T04:42:25.909Z,99.90
2022-08-16T04:44:55.693Z,99.90
2022-08-16T04:47:25.566Z,99.90
2022-08-16T04:52:33.186Z,99.90
2022-08-16T04:55:05.800Z,99.90
2022-08-16T04:57:32.762Z,99.90
2022-08-16T05:00:31.215Z,99.90
2022-08-16T05:02:54.857Z,99.90
2022-08-16T05:05:24.006Z,99.90
2022-08-16T05:07:58.370Z,99.90
2022-08-16T05:10:27.455Z,99.90
2022-08-16T05:15:24.499Z,99.90
2022-08-16T05:17:55.494Z,99.90
2022-08-16T05:20:38.643Z,99.90
2022-08-16T05:25:48.435Z,99.90
2022-08-16T05:28:15.925Z,99.90
2022-08-16T05:30:43.685Z,99.90
2022-08-16T05:33:16.652Z,99.90
2022-08-16T05:35:44.953Z,99.90
2022-08-16T05:38:32.268Z,99.90
2022-08-16T05:41:04.557Z,99.90
2022-08-16T05:43:32.234Z,99.90
2022-08-16T05:46:29.028Z,99.90
2022-08-16T05:49:03.129Z,99.90
2022-08-16T05:51:38.690Z,99.90
2022-08-16T05:54:07.505Z,99.90
2022-08-16T05:56:37.271Z,99.90
2022-08-16T05:59:06.348Z,99.90
2022-08-16T06:01:38.016Z,99.90
2022-08-16T06:04:12.821Z,99.90
2022-08-16T06:06:43.489Z,99.90
2022-08-16T06:09:24.698Z,99.90
2022-08-16T06:11:52.379Z,99.90
2022-08-16T06:14:19.585Z,99.90
2022-08-16T06:16:50.853Z,99.90
2022-08-16T06:19:17.874Z,99.90
2022-08-16T06:21:44.953Z,99.90
2022-08-16T06:24:54.242Z,99.90
2022-08-16T06:26:59.974Z,99.90
2022-08-16T06:29:26.663Z,99.90
2022-08-16T06:31:54.203Z,99.90
2022-08-16T06:34:53.262Z,99.90
2022-08-16T06:37:10.353Z,99.90
2022-08-16T06:39:46.717Z,99.90
2022-08-16T06:42:18.513Z,99.90
2022-08-16T06:44:46.982Z,99.90
2022-08-16T06:47:17.114Z,99.90
2022-08-16T06:52:58.437Z,99.90
2022-08-16T06:55:13.638Z,99.90
2022-08-16T06:57:41.954Z,99.90
2022-08-16T07:00:24.125Z,99.90
2022-08-16T07:02:54.345Z,99.90
2022-08-16T07:05:27.350Z,99.90
2022-08-16T07:08:11.350Z,99.90
2022-08-16T07:10:38.601Z,99.90
2022-08-16T07:13:11.992Z,99.90
2022-08-16T07:15:50.144Z,99.90
2022-08-16T07:18:24.489Z,99.90
2022-08-16T07:20:52.917Z,99.90
2022-08-16T07:23:21.647Z,99.90
2022-08-16T07:26:05.517Z,99.90
2022-08-16T07:28:35.283Z,99.90
2022-08-16T07:31:02.582Z,99.90
2022-08-16T07:33:53.583Z,99.90
2022-08-16T07:36:23.986Z,99.90
2022-08-16T07:38:51.604Z,99.90
2022-08-16T07:41:18.946Z,99.90
2022-08-16T07:43:47.557Z,99.90
2022-08-16T07:46:39.059Z,99.90
2022-08-16T07:49:05.594Z,99.90
2022-08-16T07:51:38.380Z,99.90
2022-08-16T07:54:10.222Z,99.90
2022-08-16T07:59:04.727Z,99.90
2022-08-16T08:01:31.603Z,99.90
2022-08-16T08:04:00.290Z,99.90
2022-08-16T08:06:32.475Z,99.90
2022-08-16T08:09:00.044Z,99.90
2022-08-16T08:11:28.836Z,99.90
2022-08-16T08:13:57.204Z,99.90
2022-08-16T08:16:30.936Z,99.90
2022-08-16T08:19:00.977Z,99.90
2022-08-16T08:22:01.136Z,99.90
2022-08-16T08:24:18.708Z,99.90
2022-08-16T08:26:50.014Z,99.90
2022-08-16T08:29:17.592Z,99.90
2022-08-16T08:31:51.567Z,99.90
2022-08-16T08:34:18.736Z,99.90
2022-08-16T08:36:47.962Z,99.90
2022-08-16T08:39:15.357Z,99.90
2022-08-16T08:41:43.326Z,99.90
2022-08-16T08:44:28.407Z,99.90
2022-08-16T08:47:01.827Z,98.20
2022-08-16T08:49:46.226Z,95.40
2022-08-16T08:52:34.216Z,96.40
2022-08-16T08:55:05.038Z,96.70
2022-08-16T08:57:38.339Z,93.10
2022-08-16T09:00:13.022Z,92.50
2022-08-16T09:02:41.306Z,94.20
2022-08-16T09:05:15.636Z,93.60
2022-08-16T09:08:01.837Z,93.30
2022-08-16T09:10:32.179Z,93.50
2022-08-16T09:13:01.398Z,90.90
2022-08-16T09:15:32.884Z,90.50
2022-08-16T09:18:00.997Z,92.40
2022-08-16T09:20:29.933Z,92.00
2022-08-16T09:23:01.756Z,92.40
2022-08-16T09:25:33.821Z,91.60
2022-08-16T09:28:09.066Z,91.50
2022-08-16T09:30:43.469Z,90.60
2022-08-16T09:33:17.834Z,90.60
2022-08-16T09:35:47.278Z,89.00
2022-08-16T09:38:32.026Z,87.10
2022-08-16T09:41:00.323Z,91.00
2022-08-16T09:43:53.315Z,85.30
2022-08-16T09:46:44.561Z,84.80
2022-08-16T09:49:03.691Z,81.30
2022-08-16T09:51:37.335Z,82.50
2022-08-16T09:54:05.657Z,81.70
2022-08-16T09:56:34.462Z,77.50
2022-08-16T09:59:07.426Z,72.80
2022-08-16T10:01:35.988Z,70.70
2022-08-16T10:04:04.564Z,72.90
2022-08-16T10:06:34.870Z,74.60
2022-08-16T10:09:05.298Z,76.20
2022-08-16T10:11:52.585Z,71.40
2022-08-16T10:14:19.821Z,72.90
2022-08-16T10:16:48.835Z,69.80
2022-08-16T10:19:19.365Z,73.50
2022-08-16T10:21:46.385Z,73.60
2022-08-16T10:24:28.511Z,73.90
2022-08-16T10:27:16.309Z,74.90
2022-08-16T10:30:00.161Z,73.40
2022-08-16T10:32:32.391Z,71.50
2022-08-16T10:34:59.475Z,69.40
2022-08-16T10:37:32.641Z,67.80
2022-08-16T10:40:05.979Z,67.00
2022-08-16T10:42:33.570Z,72.60
2022-08-16T10:45:01.896Z,70.00
2022-08-16T10:47:33.203Z,69.20
2022-08-16T10:50:06.935Z,66.70
2022-08-16T10:52:46.961Z,66.60
2022-08-16T10:58:11.669Z,66.90
2022-08-16T11:00:40.292Z,66.10
2022-08-16T11:03:42.320Z,66.80
2022-08-16T11:05:59.457Z,69.80
2022-08-16T11:08:35.939Z,72.20
2022-08-16T11:11:12.940Z,70.20
2022-08-16T11:14:10.630Z,70.90
2022-08-16T11:19:22.614Z,63.80
2022-08-16T11:24:45.073Z,65.30
2022-08-16T11:27:19.830Z,62.50
2022-08-16T11:29:49.203Z,61.00
2022-08-16T11:32:20.191Z,62.10
2022-08-16T11:35:10.645Z,64.30
2022-08-16T11:40:33.229Z,64.30
2022-08-16T11:43:01.029Z,60.30
2022-08-16T11:45:28.485Z,61.20
2022-08-16T11:48:00.406Z,61.30
2022-08-16T11:50:27.256Z,65.30
2022-08-16T11:52:54.056Z,64.90
2022-08-16T11:55:23.490Z,61.60
2022-08-16T11:57:51.478Z,66.10
2022-08-16T12:00:33.949Z,67.00
2022-08-16T12:03:11.039Z,67.10
2022-08-16T12:05:39.738Z,69.00
2022-08-16T12:08:08.673Z,65.90
2022-08-16T12:10:38.254Z,69.30
2022-08-16T12:13:05.371Z,71.50
2022-08-16T12:15:32.146Z,72.50
2022-08-16T12:18:02.005Z,75.00
2022-08-16T12:20:35.043Z,78.00
2022-08-16T12:23:02.591Z,70.50
2022-08-16T12:25:31.500Z,66.10
2022-08-16T12:27:59.209Z,66.10
2022-08-16T12:30:36.244Z,66.00
2022-08-16T12:33:07.435Z,65.10
2022-08-16T12:35:36.794Z,65.00
2022-08-16T12:38:37.781Z,66.50
2022-08-16T12:40:57.111Z,71.80
2022-08-16T12:43:24.643Z,70.20
2022-08-16T12:45:54.401Z,71.60
2022-08-16T12:48:44.332Z,73.60
2022-08-16T12:51:23.804Z,71.30
2022-08-16T12:53:52.548Z,73.00
2022-08-16T12:56:22.176Z,72.70
2022-08-16T12:58:53.018Z,75.70
2022-08-16T13:01:26.115Z,75.30
2022-08-16T13:04:08.191Z,75.80
2022-08-16T13:06:40.385Z,76.80
2022-08-16T13:09:21.548Z,77.00
2022-08-16T13:12:00.980Z,77.60
2022-08-16T13:14:33.883Z,75.30
2022-08-16T13:17:02.012Z,74.50
2022-08-16T13:19:44.215Z,72.60
2022-08-16T13:22:18.630Z,75.20
2022-08-16T13:24:46.647Z,74.00
2022-08-16T13:27:13.835Z,76.40
2022-08-16T13:29:44.097Z,79.10
2022-08-16T13:32:40.135Z,80.20
2022-08-16T13:34:57.974Z,78.20
2022-08-16T13:37:25.411Z,75.70
2022-08-16T13:39:52.964Z,76.00
2022-08-16T13:42:19.807Z,77.60
2022-08-16T13:44:55.949Z,77.40
2022-08-16T13:49:56.684Z,79.00
2022-08-16T13:52:25.010Z,79.70
2022-08-16T13:54:52.722Z,81.40
2022-08-16T13:57:20.035Z,81.20
2022-08-16T13:59:50.043Z,78.10
2022-08-16T14:02:17.354Z,78.10
2022-08-16T14:04:45.725Z,75.80
2022-08-16T14:07:20.023Z,78.40
2022-08-16T14:09:55.213Z,76.00
2022-08-16T14:12:25.278Z,77.70
2022-08-16T14:14:57.288Z,78.60
2022-08-16T14:17:26.129Z,78.60
2022-08-16T14:22:31.261Z,79.30
2022-08-16T14:24:59.743Z,78.30
2022-08-16T14:27:29.108Z,79.20
2022-08-16T14:29:58.391Z,79.80
2022-08-16T14:32:33.082Z,81.90
2022-08-16T14:35:02.213Z,83.20
2022-08-16T14:37:29.688Z,78.60
2022-08-16T14:40:00.082Z,77.80
2022-08-16T14:42:28.260Z,78.70
2022-08-16T14:44:55.013Z,74.10
2022-08-16T14:47:22.675Z,74.80
2022-08-16T14:49:49.692Z,78.50
2022-08-16T14:52:44.453Z,80.70
2022-08-16T14:55:11.707Z,78.70
2022-08-16T14:57:41.199Z,79.30
2022-08-16T15:00:11.498Z,78.10
2022-08-16T15:02:40.377Z,79.70
2022-08-16T15:05:09.513Z,77.30
2022-08-16T15:10:08.606Z,79.00
2022-08-16T15:12:50.217Z,79.10
2022-08-16T15:15:19.795Z,73.30
2022-08-16T15:17:56.758Z,81.00
2022-08-16T15:20:26.182Z,76.00
2022-08-16T15:22:57.107Z,77.80
2022-08-16T15:25:29.209Z,75.60
2022-08-16T15:28:01.596Z,75.20
2022-08-16T15:30:58.510Z,75.20
2022-08-16T15:33:18.433Z,75.80
2022-08-16T15:35:49.525Z,76.20
2022-08-16T15:43:39.413Z,77.90
2022-08-16T15:46:35.104Z,78.50
2022-08-16T15:49:16.039Z,77.80
2022-08-16T15:51:46.436Z,79.70
2022-08-16T15:54:21.435Z,79.90
2022-08-16T15:59:27.174Z,81.20
2022-08-16T16:06:55.097Z,79.10
2022-08-16T16:09:26.103Z,78.90
2022-08-16T16:14:30.490Z,77.70
2022-08-16T16:24:31.389Z,79.60
2022-08-16T16:29:25.527Z,76.50
2022-08-16T16:31:59.462Z,78.90
2022-08-16T16:34:32.295Z,78.60
2022-08-16T16:37:02.479Z,82.20
2022-08-16T16:39:32.772Z,84.70
2022-08-16T16:41:59.713Z,80.60
2022-08-16T16:44:33.487Z,80.20
2022-08-16T16:47:03.700Z,78.70
2022-08-16T16:49:32.309Z,84.10
2022-08-16T16:52:06.999Z,78.30
2022-08-16T16:54:34.884Z,81.20
2022-08-16T16:57:01.778Z,77.30
2022-08-16T16:59:28.730Z,79.20
2022-08-16T17:02:38.180Z,78.50
2022-08-16T17:04:45.278Z,78.90
2022-08-16T17:09:40.601Z,80.70
2022-08-16T17:12:08.993Z,78.80
2022-08-16T17:14:35.893Z,80.10
2022-08-16T17:17:08.519Z,81.60
2022-08-16T17:19:41.039Z,80.70
2022-08-16T17:22:15.195Z,80.20
2022-08-16T17:24:45.062Z,79.80
2022-08-16T17:27:17.957Z,82.50
2022-08-16T17:29:46.653Z,82.60
2022-08-16T17:32:33.550Z,81.50
2022-08-16T17:35:10.228Z,83.60
2022-08-16T17:37:50.838Z,85.70
2022-08-16T17:40:40.809Z,81.40
2022-08-16T17:43:08.808Z,81.30
2022-08-16T17:45:35.964Z,81.50
2022-08-16T17:48:02.968Z,81.80
2022-08-16T17:50:29.699Z,83.00
2022-08-16T17:53:00.128Z,82.70
2022-08-16T17:55:30.233Z,83.40
2022-08-16T17:58:00.295Z,83.50
2022-08-16T18:00:29.020Z,84.30
2022-08-16T18:02:57.741Z,90.10
2022-08-16T18:05:26.523Z,85.90
2022-08-16T18:07:53.672Z,87.60
2022-08-16T18:10:33.107Z,87.30
2022-08-16T18:13:03.731Z,88.00
2022-08-16T18:15:32.041Z,89.40
2022-08-16T18:18:00.025Z,88.50
2022-08-16T18:20:45.781Z,92.60
2022-08-16T18:23:15.315Z,90.40
2022-08-16T18:25:48.087Z,90.40
2022-08-16T18:28:15.529Z,91.90
2022-08-16T18:30:50.916Z,92.70
2022-08-16T18:33:19.296Z,92.00
2022-08-16T18:35:46.454Z,92.00
2022-08-16T18:38:13.268Z,93.50
2022-08-16T18:40:40.756Z,93.60
2022-08-16T18:43:10.557Z,95.40
2022-08-16T18:45:42.603Z,98.20
2022-08-16T18:48:11.137Z,99.30
2022-08-16T18:51:03.446Z,98.30
2022-08-16T18:53:28.078Z,98.60
2022-08-16T18:55:57.986Z,98.80
2022-08-16T18:58:26.345Z,99.90
2022-08-16T19:00:56.639Z,99.90
2022-08-16T19:03:27.215Z,99.90
2022-08-16T19:05:56.835Z,99.90
2022-08-16T19:13:23.501Z,99.90
2022-08-16T19:15:52.925Z,99.90
2022-08-16T19:18:21.214Z,99.90
2022-08-16T19:20:48.530Z,99.90
2022-08-16T19:23:18.178Z,99.90
2022-08-16T19:25:48.568Z,99.90
2022-08-16T19:28:49.541Z,99.90
2022-08-16T19:31:07.996Z,99.90
2022-08-16T19:33:34.857Z,99.90
2022-08-16T19:36:06.168Z,99.90
2022-08-16T19:38:33.253Z,99.90
2022-08-16T19:41:00.836Z,99.90
2022-08-16T19:43:27.779Z,99.90
2022-08-16T19:45:54.671Z,99.90
2022-08-16T19:48:22.327Z,99.90
2022-08-16T19:50:49.127Z,99.90
2022-08-16T19:53:18.833Z,99.90
2022-08-16T19:55:47.346Z,99.90
2022-08-16T19:58:16.165Z,99.90
2022-08-16T20:00:44.312Z,99.90
2022-08-16T20:03:14.970Z,99.90
2022-08-16T20:05:45.937Z,99.90
2022-08-16T20:08:13.157Z,99.90
2022-08-16T20:10:41.435Z,99.90
2022-08-16T20:13:13.474Z,99.90
2022-08-16T20:15:41.442Z,99.90
2022-08-16T20:18:17.232Z,99.90
2022-08-16T20:20:53.044Z,99.90
2022-08-16T20:23:24.325Z,99.90
2022-08-16T20:25:54.752Z,99.90
2022-08-16T20:28:51.792Z,99.90
2022-08-16T20:31:09.010Z,99.90
2022-08-16T20:36:04.106Z,99.90
2022-08-16T20:38:31.016Z,99.90
2022-08-16T20:40:58.033Z,99.90
2022-08-16T20:45:51.814Z,99.90
2022-08-16T20:50:46.138Z,99.90
2022-08-16T20:53:13.554Z,99.90
2022-08-16T20:58:07.902Z,99.90
2022-08-16T21:00:34.816Z,99.90
2022-08-16T21:03:05.633Z,99.90
2022-08-16T21:10:28.279Z,99.90
2022-08-16T21:12:58.667Z,99.90
2022-08-16T21:15:27.218Z,99.90
2022-08-16T21:17:54.143Z,99.90
2022-08-16T21:20:22.237Z,99.90
2022-08-16T21:22:52.937Z,99.90
2022-08-16T21:25:23.149Z,99.90
2022-08-16T21:28:40.562Z,99.90
2022-08-16T21:30:37.899Z,99.90
2022-08-16T21:33:06.596Z,99.90
2022-08-16T21:35:34.648Z,99.90
2022-08-16T21:38:29.419Z,99.90
2022-08-16T21:40:48.555Z,99.90
2022-08-16T21:43:22.255Z,99.90
2022-08-16T21:48:33.600Z,99.90
2022-08-16T21:51:01.700Z,99.90
2022-08-16T21:53:28.961Z,99.90
2022-08-16T21:55:57.449Z,99.90
2022-08-16T21:58:25.426Z,99.90
2022-08-16T22:00:52.896Z,99.90
2022-08-16T22:03:20.445Z,99.90
2022-08-16T22:06:10.083Z,99.90
2022-08-16T22:08:35.521Z,99.90
2022-08-16T22:11:09.423Z,99.90
2022-08-16T22:13:37.458Z,99.90
2022-08-16T22:16:07.404Z,99.90
2022-08-16T22:21:01.293Z,99.90
2022-08-16T22:23:29.008Z,99.90
2022-08-16T22:25:56.022Z,99.90
2022-08-16T22:28:26.939Z,99.90
2022-08-16T22:30:54.341Z,99.90
2022-08-16T22:33:23.190Z,99.90
2022-08-16T22:35:53.070Z,99.90
2022-08-16T22:38:54.610Z,99.90
2022-08-16T22:43:34.451Z,99.90
2022-08-16T22:46:02.202Z,99.90
2022-08-16T22:55:57.171Z,99.90
2022-08-16T22:58:33.960Z,99.90
2022-08-16T23:01:04.998Z,99.90
2022-08-16T23:03:31.732Z,99.90
2022-08-16T23:05:59.735Z,99.90
2022-08-16T23:08:38.168Z,99.90
2022-08-16T23:11:08.296Z,99.90
2022-08-16T23:13:35.217Z,99.90
2022-08-16T23:16:10.804Z,99.90
2022-08-16T23:18:39.310Z,99.90
2022-08-16T23:21:09.519Z,99.90
2022-08-16T23:23:37.550Z,99.90
2022-08-16T23:26:45.140Z,99.90
2022-08-16T23:31:21.127Z,99.90
2022-08-16T23:33:48.098Z,99.90
2022-08-16T23:36:15.022Z,99.90
2022-08-16T23:38:42.293Z,99.90
2022-08-16T23:41:11.779Z,99.90
2022-08-16T23:43:42.335Z,99.90
2022-08-16T23:46:13.291Z,99.90
2022-08-16T23:49:58.644Z,99.90
2022-08-16T23:58:54.333Z,99.90
